sensor_id;sensor_type;location;lat;lon;timestamp;pressure;altitude;pressure_sealevel;temperature;humidity
40954;BME280;26686;50.130;8.710;2023-03-14T00:05:01;98204.09;;;10.87;98.83
40954;BME280;26686;50.130;8.710;2023-03-14T00:10:13;98217.25;;;10.88;97.86
40954;BME280;26686;50.130;8.710;2023-03-14T00:15:15;98206.28;;;10.91;97.66
40954;BME280;26686;50.130;8.710;2023-03-14T00:20:16;98221.22;;;10.92;96.30
40954;BME280;26686;50.130;8.710;2023-03-14T00:25:18;98221.88;;;10.94;94.80
40954;BME280;26686;50.130;8.710;2023-03-14T00:30:19;98225.38;;;10.95;94.76
40954;BME280;26686;50.130;8.710;2023-03-14T00:35:21;98216.91;;;10.91;93.96
40954;BME280;26686;50.130;8.710;2023-03-14T00:40:22;98216.25;;;10.89;94.49
40954;BME280;26686;50.130;8.710;2023-03-14T00:45:24;98209.94;;;10.90;93.57
40954;BME280;26686;50.130;8.710;2023-03-14T00:50:25;98201.94;;;10.90;93.44
40954;BME280;26686;50.130;8.710;2023-03-14T00:55:27;98182.94;;;10.93;92.83
40954;BME280;26686;50.130;8.710;2023-03-14T01:00:28;98174.78;;;10.95;92.75
40954;BME280;26686;50.130;8.710;2023-03-14T01:05:30;98160.34;;;10.89;91.71
40954;BME280;26686;50.130;8.710;2023-03-14T01:10:32;98174.66;;;10.88;91.68
40954;BME280;26686;50.130;8.710;2023-03-14T01:15:34;98188.63;;;10.90;91.95
40954;BME280;26686;50.130;8.710;2023-03-14T01:20:37;98200.59;;;10.94;91.25
40954;BME280;26686;50.130;8.710;2023-03-14T01:25:41;98210.56;;;10.92;91.32
40954;BME280;26686;50.130;8.710;2023-03-14T01:30:42;98206.28;;;10.91;90.64
40954;BME280;26686;50.130;8.710;2023-03-14T01:35:44;98189.44;;;10.91;90.34
40954;BME280;26686;50.130;8.710;2023-03-14T01:40:45;98175.34;;;10.82;90.23
40954;BME280;26686;50.130;8.710;2023-03-14T01:51:11;98169.66;;;10.93;88.36
40954;BME280;26686;50.130;8.710;2023-03-14T01:56:15;98153.50;;;10.95;87.76
40954;BME280;26686;50.130;8.710;2023-03-14T02:01:20;98141.19;;;10.94;86.98
40954;BME280;26686;50.130;8.710;2023-03-14T02:06:30;98125.09;;;10.87;86.88
40954;BME280;26686;50.130;8.710;2023-03-14T02:11:34;98133.38;;;10.92;86.75
40954;BME280;26686;50.130;8.710;2023-03-14T02:16:35;98106.31;;;10.89;86.60
40954;BME280;26686;50.130;8.710;2023-03-14T02:27:13;98100.91;;;10.97;86.58
40954;BME280;26686;50.130;8.710;2023-03-14T02:32:16;98077.78;;;10.98;86.91
40954;BME280;26686;50.130;8.710;2023-03-14T02:37:20;98069.97;;;10.96;86.97
40954;BME280;26686;50.130;8.710;2023-03-14T02:42:22;98072.88;;;10.86;86.76
40954;BME280;26686;50.130;8.710;2023-03-14T02:47:27;98073.78;;;10.78;86.65
40954;BME280;26686;50.130;8.710;2023-03-14T02:52:29;98089.03;;;10.85;86.15
40954;BME280;26686;50.130;8.710;2023-03-14T02:57:31;98099.31;;;10.88;85.95
40954;BME280;26686;50.130;8.710;2023-03-14T03:02:32;98086.81;;;10.88;85.56
40954;BME280;26686;50.130;8.710;2023-03-14T03:07:34;98087.53;;;10.82;84.95
40954;BME280;26686;50.130;8.710;2023-03-14T03:12:35;98066.25;;;10.82;84.72
40954;BME280;26686;50.130;8.710;2023-03-14T03:17:36;98070.56;;;10.83;85.00
40954;BME280;26686;50.130;8.710;2023-03-14T03:22:38;98078.28;;;10.78;85.12
40954;BME280;26686;50.130;8.710;2023-03-14T03:27:40;98056.09;;;10.86;84.96
40954;BME280;26686;50.130;8.710;2023-03-14T03:32:41;98060.75;;;10.84;85.58
40954;BME280;26686;50.130;8.710;2023-03-14T03:37:43;98055.91;;;10.87;85.46
40954;BME280;26686;50.130;8.710;2023-03-14T03:42:45;98064.88;;;10.86;85.04
40954;BME280;26686;50.130;8.710;2023-03-14T03:47:47;98042.28;;;10.82;85.74
40954;BME280;26686;50.130;8.710;2023-03-14T03:52:49;98029.94;;;10.89;85.27
40954;BME280;26686;50.130;8.710;2023-03-14T03:57:50;98016.63;;;10.89;84.97
40954;BME280;26686;50.130;8.710;2023-03-14T04:02:52;98019.47;;;10.88;84.86
40954;BME280;26686;50.130;8.710;2023-03-14T04:07:53;98009.53;;;10.82;84.67
40954;BME280;26686;50.130;8.710;2023-03-14T04:12:55;98021.31;;;10.87;84.63
40954;BME280;26686;50.130;8.710;2023-03-14T04:17:58;98023.44;;;10.92;84.25
40954;BME280;26686;50.130;8.710;2023-03-14T04:22:59;98026.53;;;10.95;84.51
40954;BME280;26686;50.130;8.710;2023-03-14T04:28:01;98024.44;;;10.91;83.65
40954;BME280;26686;50.130;8.710;2023-03-14T04:33:02;98014.97;;;10.88;83.90
40954;BME280;26686;50.130;8.710;2023-03-14T04:38:04;98018.28;;;10.90;83.44
40954;BME280;26686;50.130;8.710;2023-03-14T04:43:10;98007.63;;;10.90;82.86
40954;BME280;26686;50.130;8.710;2023-03-14T04:48:13;98009.63;;;10.88;82.45
40954;BME280;26686;50.130;8.710;2023-03-14T04:53:16;98013.59;;;10.92;81.58
40954;BME280;26686;50.130;8.710;2023-03-14T04:58:18;97995.50;;;10.88;81.08
40954;BME280;26686;50.130;8.710;2023-03-14T05:03:20;97998.66;;;10.91;80.45
40954;BME280;26686;50.130;8.710;2023-03-14T05:08:21;97990.38;;;10.86;79.95
40954;BME280;26686;50.130;8.710;2023-03-14T05:13:23;98005.16;;;10.89;79.27
40954;BME280;26686;50.130;8.710;2023-03-14T05:18:25;97990.00;;;10.89;79.05
40954;BME280;26686;50.130;8.710;2023-03-14T05:23:26;97983.03;;;10.88;78.70
40954;BME280;26686;50.130;8.710;2023-03-14T05:28:28;97978.34;;;10.90;78.56
40954;BME280;26686;50.130;8.710;2023-03-14T05:33:30;97982.84;;;10.90;78.25
40954;BME280;26686;50.130;8.710;2023-03-14T05:38:31;97985.25;;;11.00;78.33
40954;BME280;26686;50.130;8.710;2023-03-14T05:43:32;97973.31;;;10.95;77.47
40954;BME280;26686;50.130;8.710;2023-03-14T05:48:34;97967.34;;;10.93;77.24
40954;BME280;26686;50.130;8.710;2023-03-14T05:53:35;97966.22;;;10.88;77.69
40954;BME280;26686;50.130;8.710;2023-03-14T05:58:37;97961.72;;;10.88;77.26
40954;BME280;26686;50.130;8.710;2023-03-14T06:03:39;97961.72;;;10.88;77.35
40954;BME280;26686;50.130;8.710;2023-03-14T06:08:40;97977.34;;;10.91;77.06
40954;BME280;26686;50.130;8.710;2023-03-14T06:13:42;97958.06;;;10.89;77.55
40954;BME280;26686;50.130;8.710;2023-03-14T06:18:43;97958.56;;;10.93;76.73
40954;BME280;26686;50.130;8.710;2023-03-14T06:23:47;97947.91;;;10.93;77.07
40954;BME280;26686;50.130;8.710;2023-03-14T06:28:49;97953.69;;;10.96;77.14
40954;BME280;26686;50.130;8.710;2023-03-14T06:33:52;97938.44;;;10.90;76.96
40954;BME280;26686;50.130;8.710;2023-03-14T06:38:53;97953.69;;;10.96;77.07
40954;BME280;26686;50.130;8.710;2023-03-14T06:43:55;97931.56;;;10.81;76.74
40954;BME280;26686;50.130;8.710;2023-03-14T06:48:57;97930.28;;;10.92;76.34
40954;BME280;26686;50.130;8.710;2023-03-14T06:53:58;97937.44;;;10.91;76.33
40954;BME280;26686;50.130;8.710;2023-03-14T06:59:00;97941.72;;;10.92;75.88
40954;BME280;26686;50.130;8.710;2023-03-14T07:04:02;97942.41;;;10.94;75.83
40954;BME280;26686;50.130;8.710;2023-03-14T07:09:03;97956.16;;;10.98;76.56
40954;BME280;26686;50.130;8.710;2023-03-14T07:14:05;97962.09;;;11.00;75.75
40954;BME280;26686;50.130;8.710;2023-03-14T07:19:06;97950.09;;;11.04;75.74
40954;BME280;26686;50.130;8.710;2023-03-14T07:24:08;97949.28;;;11.04;75.53
40954;BME280;26686;50.130;8.710;2023-03-14T07:29:09;97962.97;;;11.16;75.98
40954;BME280;26686;50.130;8.710;2023-03-14T07:34:11;97967.44;;;11.15;75.57
40954;BME280;26686;50.130;8.710;2023-03-14T07:39:13;97947.38;;;11.12;75.34
40954;BME280;26686;50.130;8.710;2023-03-14T07:44:14;97956.53;;;11.10;75.74
40954;BME280;26686;50.130;8.710;2023-03-14T07:49:15;97949.09;;;11.20;75.71
40954;BME280;26686;50.130;8.710;2023-03-14T07:54:17;97968.19;;;11.24;75.95
40954;BME280;26686;50.130;8.710;2023-03-14T07:59:21;97957.47;;;11.32;76.02
40954;BME280;26686;50.130;8.710;2023-03-14T08:04:22;97956.34;;;11.11;75.46
40954;BME280;26686;50.130;8.710;2023-03-14T08:09:23;97968.19;;;11.24;75.24
40954;BME280;26686;50.130;8.710;2023-03-14T08:14:25;97970.41;;;11.20;76.10
40954;BME280;26686;50.130;8.710;2023-03-14T08:19:27;97958.00;;;11.12;76.25
40954;BME280;26686;50.130;8.710;2023-03-14T08:24:28;97952.88;;;11.11;76.26
40954;BME280;26686;50.130;8.710;2023-03-14T08:29:30;97941.19;;;11.12;76.31
40954;BME280;26686;50.130;8.710;2023-03-14T08:34:33;97949.09;;;11.20;75.96
40954;BME280;26686;50.130;8.710;2023-03-14T08:39:34;97948.91;;;11.37;77.47
40954;BME280;26686;50.130;8.710;2023-03-14T08:44:36;97952.31;;;11.30;77.12
40954;BME280;26686;50.130;8.710;2023-03-14T08:49:37;97948.00;;;11.29;78.53
40954;BME280;26686;50.130;8.710;2023-03-14T08:54:39;97947.06;;;11.37;78.05
40954;BME280;26686;50.130;8.710;2023-03-14T08:59:41;97954.69;;;11.40;77.44
40954;BME280;26686;50.130;8.710;2023-03-14T09:04:42;97965.88;;;11.50;77.47
40954;BME280;26686;50.130;8.710;2023-03-14T09:09:44;97971.44;;;11.71;77.79
40954;BME280;26686;50.130;8.710;2023-03-14T09:14:45;97963.63;;;11.69;75.46
40954;BME280;26686;50.130;8.710;2023-03-14T09:19:47;97971.34;;;11.79;75.16
40954;BME280;26686;50.130;8.710;2023-03-14T09:24:48;97966.47;;;11.82;75.23
40954;BME280;26686;50.130;8.710;2023-03-14T09:29:50;97979.22;;;12.02;73.66
40954;BME280;26686;50.130;8.710;2023-03-14T09:34:51;97972.59;;;11.98;73.77
40954;BME280;26686;50.130;8.710;2023-03-14T09:39:53;97969.22;;;12.04;73.10
40954;BME280;26686;50.130;8.710;2023-03-14T09:44:57;97985.78;;;11.99;73.68
40954;BME280;26686;50.130;8.710;2023-03-14T09:50:01;97996.16;;;11.94;75.55
40954;BME280;26686;50.130;8.710;2023-03-14T09:55:14;97987.97;;;11.81;76.99
40954;BME280;26686;50.130;8.710;2023-03-14T10:00:22;97990.75;;;11.88;77.54
40954;BME280;26686;50.130;8.710;2023-03-14T10:05:25;97992.03;;;11.77;78.97
40954;BME280;26686;50.130;8.710;2023-03-14T10:10:29;97990.38;;;11.76;79.35
40954;BME280;26686;50.130;8.710;2023-03-14T10:15:32;97980.38;;;11.63;78.13
40954;BME280;26686;50.130;8.710;2023-03-14T10:20:35;97984.16;;;11.68;78.60
40954;BME280;26686;50.130;8.710;2023-03-14T10:25:40;97978.44;;;11.72;77.90
40954;BME280;26686;50.130;8.710;2023-03-14T10:30:45;97964.38;;;11.78;76.99
40954;BME280;26686;50.130;8.710;2023-03-14T10:35:57;97964.81;;;11.96;77.10
40954;BME280;26686;50.130;8.710;2023-03-14T10:40:59;97968.50;;;11.95;76.49
40954;BME280;26686;50.130;8.710;2023-03-14T10:46:09;97964.53;;;11.91;77.47
40954;BME280;26686;50.130;8.710;2023-03-14T10:56:20;97970.03;;;11.90;80.63
40954;BME280;26686;50.130;8.710;2023-03-14T11:06:42;97967.91;;;11.63;85.55
40954;BME280;26686;50.130;8.710;2023-03-14T11:11:47;97965.59;;;11.60;87.75
40954;BME280;26686;50.130;8.710;2023-03-14T11:16:57;97967.72;;;11.65;88.69
40954;BME280;26686;50.130;8.710;2023-03-14T11:22:21;97973.25;;;11.48;90.02
40954;BME280;26686;50.130;8.710;2023-03-14T11:27:41;97955.88;;;11.38;91.79
40954;BME280;26686;50.130;8.710;2023-03-14T11:37:52;97980.94;;;11.43;91.68
40954;BME280;26686;50.130;8.710;2023-03-14T11:43:15;97968.19;;;11.54;91.31
40954;BME280;26686;50.130;8.710;2023-03-14T11:54:34;97968.03;;;11.77;90.79
40954;BME280;26686;50.130;8.710;2023-03-14T11:59:55;97976.50;;;11.80;88.89
40954;BME280;26686;50.130;8.710;2023-03-14T12:10:05;97977.25;;;11.74;91.24
40954;BME280;26686;50.130;8.710;2023-03-14T12:15:18;98048.75;;;11.56;86.65
40954;BME280;26686;50.130;8.710;2023-03-14T12:20:25;98100.56;;;11.15;86.18
40954;BME280;26686;50.130;8.710;2023-03-14T12:25:29;98117.63;;;11.06;84.62
40954;BME280;26686;50.130;8.710;2023-03-14T12:30:40;98127.44;;;10.82;81.84
40954;BME280;26686;50.130;8.710;2023-03-14T12:46:26;98220.97;;;10.79;76.92
40954;BME280;26686;50.130;8.710;2023-03-14T12:56:46;98261.22;;;11.77;73.62
40954;BME280;26686;50.130;8.710;2023-03-14T13:01:58;98286.63;;;11.18;74.33
40954;BME280;26686;50.130;8.710;2023-03-14T13:07:02;98325.44;;;10.73;72.41
40954;BME280;26686;50.130;8.710;2023-03-14T13:12:10;98313.41;;;10.85;73.26
40954;BME280;26686;50.130;8.710;2023-03-14T13:17:13;98339.50;;;10.98;69.58
40954;BME280;26686;50.130;8.710;2023-03-14T13:22:34;98361.09;;;11.35;67.67
40954;BME280;26686;50.130;8.710;2023-03-14T13:27:40;98377.41;;;11.40;65.94
40954;BME280;26686;50.130;8.710;2023-03-14T13:32:44;98371.91;;;11.96;62.32
40954;BME280;26686;50.130;8.710;2023-03-14T13:37:52;98397.66;;;11.80;64.68
40954;BME280;26686;50.130;8.710;2023-03-14T13:43:20;98427.72;;;11.97;63.83
40954;BME280;26686;50.130;8.710;2023-03-14T13:48:27;98433.00;;;12.29;61.27
40954;BME280;26686;50.130;8.710;2023-03-14T13:53:30;98443.53;;;11.99;62.83
40954;BME280;26686;50.130;8.710;2023-03-14T13:58:32;98490.94;;;11.41;66.19
40954;BME280;26686;50.130;8.710;2023-03-14T14:03:39;98493.38;;;11.03;66.08
40954;BME280;26686;50.130;8.710;2023-03-14T14:08:43;98497.56;;;11.05;64.51
40954;BME280;26686;50.130;8.710;2023-03-14T14:13:45;98517.00;;;11.14;66.03
40954;BME280;26686;50.130;8.710;2023-03-14T14:18:47;98556.63;;;11.17;65.93
40954;BME280;26686;50.130;8.710;2023-03-14T14:23:49;98563.75;;;11.17;64.12
40954;BME280;26686;50.130;8.710;2023-03-14T14:29:00;98585.38;;;11.38;63.07
40954;BME280;26686;50.130;8.710;2023-03-14T14:34:03;98641.91;;;10.58;66.06
40954;BME280;26686;50.130;8.710;2023-03-14T14:39:11;98650.13;;;9.35;70.43
40954;BME280;26686;50.130;8.710;2023-03-14T14:44:17;98661.47;;;9.45;71.85
40954;BME280;26686;50.130;8.710;2023-03-14T14:49:28;98684.72;;;9.43;71.12
40954;BME280;26686;50.130;8.710;2023-03-14T14:54:37;98701.03;;;9.30;70.47
40954;BME280;26686;50.130;8.710;2023-03-14T14:59:43;98716.91;;;9.40;71.53
40954;BME280;26686;50.130;8.710;2023-03-14T15:04:46;98733.56;;;9.68;71.48
40954;BME280;26686;50.130;8.710;2023-03-14T15:09:48;98739.47;;;9.62;71.19
40954;BME280;26686;50.130;8.710;2023-03-14T15:14:50;98767.19;;;9.60;69.40
40954;BME280;26686;50.130;8.710;2023-03-14T15:19:51;98782.97;;;9.25;70.97
40954;BME280;26686;50.130;8.710;2023-03-14T15:24:53;98794.44;;;9.26;70.20
40954;BME280;26686;50.130;8.710;2023-03-14T15:29:55;98810.28;;;8.90;71.11
40954;BME280;26686;50.130;8.710;2023-03-14T15:34:56;98814.03;;;8.97;68.44
40954;BME280;26686;50.130;8.710;2023-03-14T15:39:58;98838.22;;;8.94;70.08
40954;BME280;26686;50.130;8.710;2023-03-14T15:45:00;98850.91;;;9.00;68.42
40954;BME280;26686;50.130;8.710;2023-03-14T15:50:01;98858.19;;;8.98;69.42
40954;BME280;26686;50.130;8.710;2023-03-14T15:55:03;98864.94;;;9.10;69.52
40954;BME280;26686;50.130;8.710;2023-03-14T16:00:05;98882.06;;;8.98;68.43
40954;BME280;26686;50.130;8.710;2023-03-14T16:05:09;98895.34;;;8.98;69.13
40954;BME280;26686;50.130;8.710;2023-03-14T16:10:12;98896.00;;;9.00;68.95
40954;BME280;26686;50.130;8.710;2023-03-14T16:15:14;98906.63;;;9.00;67.59
40954;BME280;26686;50.130;8.710;2023-03-14T16:20:16;98911.56;;;8.95;68.57
40954;BME280;26686;50.130;8.710;2023-03-14T16:25:20;98932.44;;;8.70;69.73
40954;BME280;26686;50.130;8.710;2023-03-14T16:30:22;98944.81;;;8.89;69.58
40954;BME280;26686;50.130;8.710;2023-03-14T16:35:23;98949.69;;;8.84;70.88
40954;BME280;26686;50.130;8.710;2023-03-14T16:40:25;98960.63;;;8.71;71.19
40954;BME280;26686;50.130;8.710;2023-03-14T16:45:27;98960.97;;;8.48;72.99
40954;BME280;26686;50.130;8.710;2023-03-14T16:50:28;98970.53;;;8.69;74.47
40954;BME280;26686;50.130;8.710;2023-03-14T16:55:30;98983.25;;;8.75;74.79
40954;BME280;26686;50.130;8.710;2023-03-14T17:00:32;99000.03;;;8.46;72.94
40954;BME280;26686;50.130;8.710;2023-03-14T17:05:33;99023.44;;;8.02;73.75
40954;BME280;26686;50.130;8.710;2023-03-14T17:10:34;99034.28;;;7.89;75.94
40954;BME280;26686;50.130;8.710;2023-03-14T17:15:44;99057.03;;;7.92;75.85
40954;BME280;26686;50.130;8.710;2023-03-14T17:20:46;99056.28;;;7.80;75.89
40954;BME280;26686;50.130;8.710;2023-03-14T17:25:48;99051.34;;;8.06;75.28
40954;BME280;26686;50.130;8.710;2023-03-14T17:31:00;99074.38;;;8.16;75.14
40954;BME280;26686;50.130;8.710;2023-03-14T17:36:03;99102.94;;;8.12;74.74
40954;BME280;26686;50.130;8.710;2023-03-14T17:41:10;99123.19;;;8.03;74.12
40954;BME280;26686;50.130;8.710;2023-03-14T17:46:12;99139.09;;;8.03;74.14
40954;BME280;26686;50.130;8.710;2023-03-14T17:51:17;99151.72;;;7.59;73.95
40954;BME280;26686;50.130;8.710;2023-03-14T17:56:19;99150.47;;;7.63;74.69
40954;BME280;26686;50.130;8.710;2023-03-14T18:01:20;99181.38;;;7.53;74.39
40954;BME280;26686;50.130;8.710;2023-03-14T18:06:22;99177.88;;;7.73;74.63
40954;BME280;26686;50.130;8.710;2023-03-14T18:11:25;99185.41;;;7.78;73.95
40954;BME280;26686;50.130;8.710;2023-03-14T18:16:27;99195.09;;;7.68;74.58
40954;BME280;26686;50.130;8.710;2023-03-14T18:21:28;99213.19;;;7.63;74.17
40954;BME280;26686;50.130;8.710;2023-03-14T18:26:32;99237.53;;;7.77;74.13
40954;BME280;26686;50.130;8.710;2023-03-14T18:31:33;99246.88;;;7.72;72.57
40954;BME280;26686;50.130;8.710;2023-03-14T18:36:35;99258.72;;;7.77;72.02
40954;BME280;26686;50.130;8.710;2023-03-14T18:41:37;99261.03;;;7.82;72.36
40954;BME280;26686;50.130;8.710;2023-03-14T18:46:39;99256.94;;;7.78;70.50
40954;BME280;26686;50.130;8.710;2023-03-14T18:51:42;99270.44;;;7.75;70.08
40954;BME280;26686;50.130;8.710;2023-03-14T18:56:44;99278.44;;;7.85;70.50
40954;BME280;26686;50.130;8.710;2023-03-14T19:01:45;99299.84;;;7.93;70.35
40954;BME280;26686;50.130;8.710;2023-03-14T19:06:46;99311.84;;;7.97;69.01
40954;BME280;26686;50.130;8.710;2023-03-14T19:11:48;99311.16;;;7.95;68.32
40954;BME280;26686;50.130;8.710;2023-03-14T19:16:50;99309.97;;;8.09;69.28
40954;BME280;26686;50.130;8.710;2023-03-14T19:21:51;99330.06;;;8.11;68.72
40954;BME280;26686;50.130;8.710;2023-03-14T19:26:54;99335.91;;;8.05;68.95
40954;BME280;26686;50.130;8.710;2023-03-14T19:31:56;99347.19;;;8.07;69.11
40954;BME280;26686;50.130;8.710;2023-03-14T19:36:57;99367.19;;;8.11;67.67
40954;BME280;26686;50.130;8.710;2023-03-14T19:41:59;99358.97;;;7.93;67.55
40954;BME280;26686;50.130;8.710;2023-03-14T19:47:01;99376.69;;;7.93;66.47
40954;BME280;26686;50.130;8.710;2023-03-14T19:52:02;99390.91;;;7.92;68.34
40954;BME280;26686;50.130;8.710;2023-03-14T19:57:04;99382.03;;;7.82;68.65
40954;BME280;26686;50.130;8.710;2023-03-14T20:02:06;99400.56;;;7.82;68.82
40954;BME280;26686;50.130;8.710;2023-03-14T20:07:07;99410.66;;;7.88;68.34
40954;BME280;26686;50.130;8.710;2023-03-14T20:12:08;99424.47;;;7.70;68.16
40954;BME280;26686;50.130;8.710;2023-03-14T20:17:10;99425.69;;;7.66;68.13
40954;BME280;26686;50.130;8.710;2023-03-14T20:22:12;99442.28;;;7.79;69.86
40954;BME280;26686;50.130;8.710;2023-03-14T20:27:13;99462.97;;;7.86;68.26
40954;BME280;26686;50.130;8.710;2023-03-14T20:32:14;99477.78;;;7.88;68.29
40954;BME280;26686;50.130;8.710;2023-03-14T20:37:18;99478.38;;;7.81;66.90
40954;BME280;26686;50.130;8.710;2023-03-14T20:42:20;99494.06;;;7.84;65.95
40954;BME280;26686;50.130;8.710;2023-03-14T20:47:21;99511.50;;;7.86;67.56
40954;BME280;26686;50.130;8.710;2023-03-14T20:52:23;99518.97;;;7.70;68.12
40954;BME280;26686;50.130;8.710;2023-03-14T20:57:24;99527.69;;;7.60;66.73
40954;BME280;26686;50.130;8.710;2023-03-14T21:02:26;99542.47;;;7.52;68.03
40954;BME280;26686;50.130;8.710;2023-03-14T21:07:31;99539.22;;;7.59;67.50
40954;BME280;26686;50.130;8.710;2023-03-14T21:12:34;99553.56;;;7.57;67.86
40954;BME280;26686;50.130;8.710;2023-03-14T21:17:35;99560.06;;;7.53;66.45
40954;BME280;26686;50.130;8.710;2023-03-14T21:22:40;99567.66;;;7.57;61.48
40954;BME280;26686;50.130;8.710;2023-03-14T21:27:41;99570.19;;;7.48;64.89
40954;BME280;26686;50.130;8.710;2023-03-14T21:32:43;99590.88;;;7.65;65.80
40954;BME280;26686;50.130;8.710;2023-03-14T21:37:48;99577.28;;;7.47;68.51
40954;BME280;26686;50.130;8.710;2023-03-14T21:42:50;99593.03;;;7.49;67.18
40954;BME280;26686;50.130;8.710;2023-03-14T21:47:56;99599.44;;;7.46;65.36
40954;BME280;26686;50.130;8.710;2023-03-14T21:52:57;99618.44;;;7.29;66.42
40954;BME280;26686;50.130;8.710;2023-03-14T21:57:59;99611.56;;;7.26;67.58
40954;BME280;26686;50.130;8.710;2023-03-14T22:03:03;99627.72;;;7.46;66.68
40954;BME280;26686;50.130;8.710;2023-03-14T22:08:14;99627.97;;;7.54;66.55
40954;BME280;26686;50.130;8.710;2023-03-14T22:13:17;99629.41;;;7.58;68.01
40954;BME280;26686;50.130;8.710;2023-03-14T22:18:19;99637.44;;;7.22;67.17
40954;BME280;26686;50.130;8.710;2023-03-14T22:23:20;99643.97;;;7.41;67.67
40954;BME280;26686;50.130;8.710;2023-03-14T22:28:22;99658.28;;;7.38;67.26
40954;BME280;26686;50.130;8.710;2023-03-14T22:33:23;99670.47;;;7.52;67.51
40954;BME280;26686;50.130;8.710;2023-03-14T22:38:24;99682.59;;;7.43;67.10
40954;BME280;26686;50.130;8.710;2023-03-14T22:43:27;99694.13;;;7.31;67.76
40954;BME280;26686;50.130;8.710;2023-03-14T22:48:28;99690.34;;;7.11;67.38
40954;BME280;26686;50.130;8.710;2023-03-14T22:53:31;99704.19;;;7.15;67.71
40954;BME280;26686;50.130;8.710;2023-03-14T22:58:33;99716.34;;;7.17;66.75
40954;BME280;26686;50.130;8.710;2023-03-14T23:03:34;99732.78;;;7.10;68.29
40954;BME280;26686;50.130;8.710;2023-03-14T23:08:36;99746.81;;;6.99;67.46
40954;BME280;26686;50.130;8.710;2023-03-14T23:13:39;99745.91;;;7.11;67.48
40954;BME280;26686;50.130;8.710;2023-03-14T23:18:43;99748.69;;;7.10;68.02
40954;BME280;26686;50.130;8.710;2023-03-14T23:23:45;99760.06;;;6.99;67.21
40954;BME280;26686;50.130;8.710;2023-03-14T23:28:48;99766.72;;;6.67;69.63
40954;BME280;26686;50.130;8.710;2023-03-14T23:33:49;99763.31;;;6.78;67.71
40954;BME280;26686;50.130;8.710;2023-03-14T23:38:51;99765.03;;;6.66;68.59
40954;BME280;26686;50.130;8.710;2023-03-14T23:43:52;99758.47;;;6.72;67.77
40954;BME280;26686;50.130;8.710;2023-03-14T23:48:54;99773.72;;;6.68;66.81
40954;BME280;26686;50.130;8.710;2023-03-14T23:53:55;99780.91;;;6.66;65.53
40954;BME280;26686;50.130;8.710;2023-03-14T23:58:57;99785.97;;;6.69;64.42
